Time;durP1;ratioP1;P1;durP2;ratioP2;P2;SDS_P1;SDS_P2;PMS_P1;PMS_P2;Temp;Humidity;BMP_temperature;BMP_pressure;BME280_temperature;BME280_humidity;BME280_pressure;Samples;Min_cycle;Max_cycle;Signal;HPM_P1;HPM_P2
2021/09/07 00:01:48;;;;;;;7.28;3.40;;;;;;;19.13;53.26;100625.88;5048918;28;20060;-49
2021/09/07 00:04:13;;;;;;;8.95;3.10;;;;;;;19.30;53.06;100623.22;5049132;28;20047;-50
2021/09/07 00:06:39;;;;;;;5.03;3.13;;;;;;;19.38;52.36;100630.13;5048636;28;20488;-48
2021/09/07 00:09:04;;;;;;;6.78;3.20;;;;;;;19.33;52.35;100627.34;5048607;28;20041;-51
2021/09/07 00:11:30;;;;;;;5.43;3.22;;;;;;;19.38;52.08;100622.03;5047633;28;20057;-48
2021/09/07 00:13:55;;;;;;;7.65;3.33;;;;;;;19.35;52.19;100625.22;5048898;28;20032;-48
2021/09/07 00:16:21;;;;;;;5.07;3.00;;;;;;;19.39;52.24;100623.66;5049029;28;20021;-48
2021/09/07 00:18:46;;;;;;;7.35;3.95;;;;;;;19.64;51.07;100626.00;5048967;28;20413;-49
2021/09/07 00:21:12;;;;;;;6.80;3.40;;;;;;;19.67;51.64;100616.63;5048823;28;20025;-48
2021/09/07 00:23:37;;;;;;;6.00;3.40;;;;;;;19.62;51.46;100625.44;5049083;28;20024;-48
2021/09/07 00:26:03;;;;;;;5.25;3.22;;;;;;;19.65;51.57;100624.16;5048763;28;20477;-50
2021/09/07 00:28:28;;;;;;;5.47;3.38;;;;;;;19.70;51.25;100629.63;5048753;28;20044;-48
2021/09/07 00:30:54;;;;;;;5.93;3.70;;;;;;;19.81;50.94;100623.38;5048864;28;20447;-48
2021/09/07 00:33:19;;;;;;;8.27;3.30;;;;;;;19.72;51.12;100614.03;5048995;28;20021;-50
2021/09/07 00:35:44;;;;;;;6.93;3.15;;;;;;;19.85;50.93;100623.72;5048726;28;20477;-50
2021/09/07 00:38:11;;;;;;;7.78;3.22;;;;;;;19.84;50.94;100627.50;5048752;28;20616;-48
2021/09/07 00:40:37;;;;;;;5.13;3.35;;;;;;;19.74;51.12;100628.09;5048744;28;20111;-49
2021/09/07 00:43:02;;;;;;;9.30;3.35;;;;;;;19.78;51.16;100634.69;5048792;28;20083;-46
2021/09/07 00:45:28;;;;;;;4.28;3.10;;;;;;;19.60;51.24;100624.06;5048552;28;20032;-48
2021/09/07 00:47:54;;;;;;;10.23;3.35;;;;;;;19.49;52.61;100628.44;5038761;28;20036;-48
2021/09/07 00:50:19;;;;;;;5.75;3.20;;;;;;;19.60;51.78;100629.44;5028589;28;20440;-47
2021/09/07 00:52:45;;;;;;;6.13;3.70;;;;;;;19.65;51.69;100633.06;5028780;28;20551;-47
2021/09/07 00:55:11;;;;;;;7.75;3.13;;;;;;;19.79;50.94;100624.69;5027446;28;20025;-48
2021/09/07 00:57:36;;;;;;;7.15;3.45;;;;;;;19.80;50.63;100616.34;5028592;28;20547;-48
2021/09/07 01:00:06;;;;;;;5.97;3.30;;;;;;;19.70;51.39;100626.94;5027408;28;20018;-47
2021/09/07 01:02:31;;;;;;;7.05;3.38;;;;;;;19.63;51.48;100627.09;5028650;28;20162;-49
2021/09/07 01:04:57;;;;;;;8.35;3.30;;;;;;;19.79;50.92;100632.78;5029280;28;20021;-47
2021/09/07 01:07:22;;;;;;;5.25;3.60;;;;;;;19.63;51.45;100631.66;5032208;28;20031;-47
2021/09/07 01:09:48;;;;;;;4.75;3.13;;;;;;;19.56;51.68;100631.00;5031452;28;20072;-50
2021/09/07 01:12:13;;;;;;;9.18;3.60;;;;;;;19.60;51.45;100627.56;5030683;28;20029;-47
2021/09/07 01:14:39;;;;;;;6.10;3.60;;;;;;;19.67;51.42;100625.53;5031709;28;20355;-48
2021/09/07 01:17:17;;;;;;;6.35;3.42;;;;;;;19.60;51.54;100632.97;5030980;28;20381;-47
2021/09/07 01:19:43;;;;;;;6.80;3.53;;;;;;;19.59;51.64;100630.50;5031937;28;20025;-50
2021/09/07 01:22:09;;;;;;;8.15;3.30;;;;;;;19.65;51.51;100626.84;5032359;28;20064;-50
2021/09/07 01:24:35;;;;;;;8.38;3.47;;;;;;;19.65;51.53;100632.25;5032174;28;20025;-51
2021/09/07 01:27:05;;;;;;;5.32;3.47;;;;;;;19.70;51.33;100626.94;5031722;28;20033;-50
2021/09/07 01:29:30;;;;;;;7.30;3.50;;;;;;;19.84;51.35;100622.09;5031773;28;20079;-50
2021/09/07 01:31:59;;;;;;;9.10;3.60;;;;;;;19.84;51.22;100622.09;5031628;28;20037;-48
2021/09/07 01:34:25;;;;;;;7.57;3.27;;;;;;;19.78;51.40;100623.03;5031778;28;20025;-50
2021/09/07 01:36:50;;;;;;;9.18;3.78;;;;;;;19.85;51.54;100615.63;5031601;28;20048;-50
2021/09/07 01:39:16;;;;;;;8.45;3.58;;;;;;;19.90;51.63;100621.94;5031946;28;20079;-48
2021/09/07 01:41:42;;;;;;;7.88;3.50;;;;;;;19.91;51.75;100625.44;5031686;28;20120;-50
2021/09/07 01:44:07;;;;;;;5.80;3.75;;;;;;;20.00;51.21;100618.56;5031600;28;20021;-50
2021/09/07 01:46:33;;;;;;;8.70;3.50;;;;;;;20.03;51.62;100623.50;5031559;28;20042;-50
2021/09/07 01:48:58;;;;;;;5.03;3.50;;;;;;;19.94;51.85;100618.75;5049982;28;20033;-50
2021/09/07 01:51:24;;;;;;;7.65;3.60;;;;;;;19.91;51.52;100626.28;5051362;28;20041;-51
2021/09/07 01:53:49;;;;;;;9.43;3.70;;;;;;;19.98;51.47;100611.78;5051202;28;20033;-51
2021/09/07 01:56:15;;;;;;;5.35;3.50;;;;;;;19.92;51.37;100614.41;5051231;28;20157;-50
2021/09/07 01:58:40;;;;;;;7.97;3.70;;;;;;;20.10;50.93;100618.75;5051561;28;20366;-50
2021/09/07 02:01:05;;;;;;;5.60;3.42;;;;;;;20.18;50.50;100605.88;5051229;28;20033;-51
2021/09/07 02:03:31;;;;;;;5.50;3.40;;;;;;;20.06;50.98;100612.19;5051265;28;20029;-49
2021/09/07 02:05:57;;;;;;;6.38;3.20;;;;;;;20.16;50.72;100613.41;5051019;28;20041;-50
2021/09/07 02:08:22;;;;;;;6.75;3.47;;;;;;;20.24;50.37;100616.53;5050985;28;20087;-49
2021/09/07 02:10:48;;;;;;;5.40;3.92;;;;;;;20.38;49.81;100610.78;5050827;28;20045;-51
2021/09/07 02:13:13;;;;;;;6.05;3.33;;;;;;;20.36;50.05;100613.75;5051218;28;20074;-50
2021/09/07 02:15:38;;;;;;;6.57;3.70;;;;;;;20.36;49.71;100615.63;5050963;28;20032;-49
2021/09/07 02:18:04;;;;;;;6.93;3.53;;;;;;;20.38;50.16;100614.31;5049910;28;20032;-52
2021/09/07 02:20:29;;;;;;;6.65;3.58;;;;;;;20.22;50.38;100613.25;5050672;28;20381;-50
2021/09/07 02:22:55;;;;;;;7.95;3.55;;;;;;;20.11;50.20;100609.56;5050474;28;20017;-47
2021/09/07 02:25:20;;;;;;;6.93;3.88;;;;;;;20.31;49.69;100611.78;5050554;28;20021;-52
2021/09/07 02:27:46;;;;;;;10.10;3.92;;;;;;;19.92;51.17;100614.41;5050889;28;20086;-51
2021/09/07 02:30:12;;;;;;;5.68;3.80;;;;;;;19.98;50.51;100618.00;5050549;28;20422;-49
2021/09/07 02:32:37;;;;;;;6.25;3.78;;;;;;;19.87;50.22;100608.91;5050980;28;20094;-51
2021/09/07 02:35:03;;;;;;;7.47;3.95;;;;;;;20.04;50.22;100614.31;5050803;28;20469;-51
2021/09/07 02:37:28;;;;;;;5.63;4.03;;;;;;;20.22;49.44;100610.56;5051148;28;20021;-50
2021/09/07 02:39:54;;;;;;;5.75;3.90;;;;;;;20.25;49.48;100612.75;5051049;28;20624;-49
2021/09/07 02:42:19;;;;;;;7.75;4.00;;;;;;;20.27;49.13;100617.91;5050556;28;20052;-49
2021/09/07 02:44:45;;;;;;;9.85;3.90;;;;;;;20.22;49.11;100615.13;5049336;28;20021;-51
2021/09/07 02:47:10;;;;;;;5.57;3.58;;;;;;;20.20;48.89;100614.56;5046698;28;20370;-51
2021/09/07 02:49:35;;;;;;;8.30;3.90;;;;;;;20.35;48.38;100617.50;5030955;28;20033;-52
2021/09/07 02:52:01;;;;;;;6.88;3.88;;;;;;;20.44;48.50;100626.81;5029327;28;20490;-49
2021/09/07 02:54:27;;;;;;;7.22;3.83;;;;;;;20.40;48.59;100625.69;5030480;28;20079;-37
2021/09/07 02:56:52;;;;;;;5.35;3.60;;;;;;;20.46;48.26;100624.69;5030510;28;20482;-35
2021/09/07 02:59:17;;;;;;;6.20;3.70;;;;;;;20.44;47.89;100626.81;5030655;28;20025;-36
2021/09/07 03:01:43;;;;;;;6.95;4.10;;;;;;;20.40;48.31;100619.47;5030291;28;20033;-36
2021/09/07 03:04:08;;;;;;;7.43;4.20;;;;;;;20.46;47.96;100619.28;5030511;28;20037;-36
2021/09/07 03:06:34;;;;;;;8.70;4.28;;;;;;;20.30;48.34;100618.25;5030565;28;20033;-37
2021/09/07 03:08:59;;;;;;;7.65;4.30;;;;;;;20.25;48.34;100615.47;5030317;28;20068;-38
2021/09/07 03:11:25;;;;;;;8.30;4.10;;;;;;;20.26;48.74;100619.81;5030381;28;20107;-38
2021/09/07 03:13:50;;;;;;;7.63;4.30;;;;;;;20.31;48.44;100621.75;5030372;28;20032;-37
2021/09/07 03:16:16;;;;;;;8.07;4.28;;;;;;;20.34;48.28;100613.16;5030755;28;20028;-37
2021/09/07 03:18:41;;;;;;;7.93;4.20;;;;;;;20.34;47.99;100615.06;5030216;28;20477;-37
2021/09/07 03:21:07;;;;;;;8.10;4.45;;;;;;;20.21;48.44;100619.72;5030198;28;20087;-37
2021/09/07 03:23:32;;;;;;;6.82;4.55;;;;;;;19.94;48.90;100611.47;5030224;28;20048;-37
2021/09/07 03:25:58;;;;;;;12.15;4.50;;;;;;;19.91;49.38;100617.34;5030226;28;20044;-38
2021/09/07 03:28:23;;;;;;;8.82;4.75;;;;;;;19.94;49.08;100611.47;5029875;28;20091;-37
2021/09/07 03:30:49;;;;;;;9.20;4.80;;;;;;;19.95;48.73;100614.97;5030214;28;20052;-37
2021/09/07 03:33:14;;;;;;;7.90;4.50;;;;;;;19.99;48.70;100616.13;5030344;28;20022;-37
2021/09/07 03:35:40;;;;;;;8.60;4.65;;;;;;;20.05;48.85;100617.84;5030204;28;20053;-37
2021/09/07 03:38:05;;;;;;;14.02;4.75;;;;;;;19.96;48.85;100619.31;5028694;28;20386;-37
2021/09/07 03:40:31;;;;;;;7.32;4.63;;;;;;;20.06;48.74;100616.78;5030618;28;20022;-37
2021/09/07 03:42:56;;;;;;;8.13;5.18;;;;;;;20.01;48.91;100619.38;5030308;28;20033;-37
2021/09/07 03:45:21;;;;;;;10.88;5.32;;;;;;;20.18;48.63;100625.63;5030145;28;20032;-37
2021/09/07 03:47:47;;;;;;;11.73;5.10;;;;;;;20.25;47.95;100628.16;5030034;28;20457;-37
2021/09/07 03:50:13;;;;;;;9.27;4.50;;;;;;;20.20;48.34;100630.78;5028200;28;20021;-37
2021/09/07 03:52:39;;;;;;;6.50;4.50;;;;;;;20.00;48.50;100634.78;5029430;28;20057;-37
2021/09/07 03:55:05;;;;;;;9.82;4.45;;;;;;;20.06;48.48;100633.78;5029469;28;20088;-37
2021/09/07 03:57:30;;;;;;;7.63;4.38;;;;;;;20.03;48.22;100639.72;5028095;28;20041;-37
2021/09/07 03:59:57;;;;;;;8.82;4.55;;;;;;;20.12;47.79;100640.09;5029291;28;20022;-38
2021/09/07 04:02:25;;;;;;;7.32;4.57;;;;;;;20.20;47.35;100641.56;5027731;28;20459;-37
2021/09/07 04:04:51;;;;;;;8.77;4.30;;;;;;;20.26;47.13;100641.44;5029548;28;20030;-37
2021/09/07 04:07:17;;;;;;;7.88;4.43;;;;;;;20.35;47.37;100641.00;5029376;28;20053;-37
2021/09/07 04:09:42;;;;;;;7.10;4.50;;;;;;;20.45;47.09;100646.59;5028951;28;20206;-37
2021/09/07 04:12:08;;;;;;;7.07;4.47;;;;;;;20.47;47.20;100645.28;5029382;28;20089;-37
2021/09/07 04:14:33;;;;;;;7.63;4.03;;;;;;;20.44;46.72;100645.75;5029531;28;20120;-37
2021/09/07 04:16:59;;;;;;;7.95;4.20;;;;;;;20.54;46.83;100647.78;5029174;28;20056;-37
2021/09/07 04:19:24;;;;;;;8.60;4.35;;;;;;;20.50;46.64;100652.91;5029211;28;20025;-37
2021/09/07 04:21:49;;;;;;;8.30;4.70;;;;;;;20.39;46.64;100651.09;5028017;28;20496;-36
2021/09/07 04:24:15;;;;;;;8.15;4.47;;;;;;;20.45;46.83;100654.69;5029032;28;20425;-36
2021/09/07 04:26:40;;;;;;;10.02;5.00;;;;;;;20.45;46.87;100650.09;5029098;28;20027;-37
2021/09/07 04:29:06;;;;;;;9.57;6.18;;;;;;;20.40;47.30;100651.91;5029208;28;20026;-37
2021/09/07 04:31:32;;;;;;;9.77;6.22;;;;;;;20.40;47.23;100650.00;5028893;28;20489;-37
2021/09/07 04:33:57;;;;;;;15.60;9.55;;;;;;;20.53;47.16;100648.06;5028832;28;20040;-37
2021/09/07 04:36:23;;;;;;;14.65;7.55;;;;;;;20.66;47.02;100645.03;5028956;28;20044;-37
2021/09/07 04:38:48;;;;;;;9.35;6.05;;;;;;;20.86;46.56;100650.72;5027759;28;20052;-37
2021/09/07 04:41:14;;;;;;;14.18;5.97;;;;;;;20.87;46.51;100655.06;5031526;28;20381;-37
2021/09/07 04:43:39;;;;;;;11.88;5.97;;;;;;;20.56;47.11;100656.50;5032727;28;20029;-40
2021/09/07 04:46:05;;;;;;;10.40;5.05;;;;;;;20.63;46.97;100659.84;5032720;28;20028;-37
2021/09/07 04:48:30;;;;;;;12.13;5.15;;;;;;;20.82;46.64;100657.69;5047084;28;20111;-37
2021/09/07 04:50:56;;;;;;;12.48;5.60;;;;;;;20.99;46.51;100652.25;5052520;28;20031;-37
2021/09/07 04:53:22;;;;;;;9.23;4.78;;;;;;;21.20;47.10;100645.19;5052484;28;20104;-37
2021/09/07 04:55:47;;;;;;;10.60;5.35;;;;;;;21.44;46.05;100658.50;5050955;28;20025;-37
2021/09/07 04:58:13;;;;;;;8.70;5.07;;;;;;;21.58;45.63;100667.06;5052104;28;20032;-37
2021/09/07 05:00:38;;;;;;;24.65;14.30;;;;;;;21.67;45.56;100657.41;5052222;28;20032;-37
2021/09/07 05:03:04;;;;;;;12.07;8.45;;;;;;;21.97;45.11;100667.72;5034052;28;20417;-37
2021/09/07 05:05:29;;;;;;;14.30;6.90;;;;;;;22.47;44.33;100676.56;5031518;28;20051;-38
2021/09/07 05:07:57;;;;;;;13.80;8.68;;;;;;;22.75;44.50;100671.84;5031153;28;20079;-35
2021/09/07 05:10:23;;;;;;;46.03;32.83;;;;;;;23.17;42.95;100663.72;5036429;28;20084;-37
2021/09/07 05:12:48;;;;;;;14.98;8.98;;;;;;;23.44;41.94;100665.44;5051361;28;20025;-37
2021/09/07 05:15:14;;;;;;;13.10;5.85;;;;;;;23.78;40.97;100663.09;5051402;28;20075;-37
2021/09/07 05:17:39;;;;;;;10.32;5.47;;;;;;;24.32;40.01;100671.84;5051900;28;20401;-38
2021/09/07 05:20:05;;;;;;;10.95;5.25;;;;;;;24.64;39.60;100676.19;5052315;28;20013;-37
2021/09/07 05:22:31;;;;;;;9.00;5.68;;;;;;;25.15;38.60;100671.41;5051089;28;20021;-36
2021/09/07 05:24:56;;;;;;;10.15;5.72;;;;;;;25.45;37.56;100674.28;5050999;28;20057;-37
2021/09/07 05:27:22;;;;;;;10.85;5.40;;;;;;;25.66;37.36;100678.53;5050745;28;20020;-37
2021/09/07 05:29:47;;;;;;;17.45;8.77;;;;;;;25.85;36.78;100681.41;5050648;28;20021;-37
2021/09/07 05:32:13;;;;;;;13.35;6.18;;;;;;;25.95;36.57;100683.31;5051053;28;20021;-37
2021/09/07 05:34:38;;;;;;;10.00;5.95;;;;;;;25.75;37.18;100682.28;5050329;28;20036;-37
2021/09/07 05:37:04;;;;;;;11.38;6.03;;;;;;;26.16;36.52;100670.31;5049200;28;20036;-37
2021/09/07 05:39:30;;;;;;;10.20;5.78;;;;;;;26.44;35.53;100676.88;5049351;28;20021;-37
2021/09/07 05:41:55;;;;;;;13.38;5.80;;;;;;;26.68;35.16;100676.16;5050888;28;20028;-38
2021/09/07 05:44:21;;;;;;;16.05;6.15;;;;;;;26.45;35.30;100680.44;5049061;28;20477;-36
2021/09/07 05:46:46;;;;;;;11.45;5.68;;;;;;;26.50;35.35;100678.47;5050583;28;20464;-37
2021/09/07 05:49:12;;;;;;;12.90;6.22;;;;;;;26.04;35.68;100651.56;5050671;28;20040;-38
2021/09/07 05:51:37;;;;;;;11.45;5.50;;;;;;;26.26;35.82;100674.88;5050047;28;20040;-38
2021/09/07 05:54:03;;;;;;;17.00;6.60;;;;;;;25.99;36.47;100669.88;5050194;28;20056;-36
2021/09/07 05:56:28;;;;;;;45.05;30.05;;;;;;;26.47;35.64;100681.78;5050646;28;20323;-36
2021/09/07 05:58:56;;;;;;;10.55;5.93;;;;;;;27.10;34.46;100677.31;5050357;28;20021;-36
2021/09/07 06:01:21;;;;;;;11.95;5.78;;;;;;;27.09;33.96;100681.13;5050360;28;20021;-36
2021/09/07 06:03:47;;;;;;;11.23;5.20;;;;;;;27.20;34.13;100671.72;5050464;28;20472;-37
2021/09/07 06:06:12;;;;;;;13.45;5.47;;;;;;;27.05;34.51;100678.16;5048741;28;20016;-37
2021/09/07 06:08:38;;;;;;;11.60;5.38;;;;;;;27.73;33.42;100673.50;5050029;28;20036;-37
2021/09/07 06:11:04;;;;;;;14.20;5.28;;;;;;;28.15;32.73;100670.97;5050447;28;20535;-37
2021/09/07 06:13:31;;;;;;;16.88;5.30;;;;;;;28.70;31.50;100679.31;5050522;28;20082;-36
2021/09/07 06:15:57;;;;;;;15.95;5.10;;;;;;;28.47;31.80;100670.94;5050352;28;20025;-37
2021/09/07 06:18:22;;;;;;;15.93;5.50;;;;;;;28.95;30.74;100677.22;5050033;28;20036;-37
2021/09/07 06:20:48;;;;;;;12.43;5.35;;;;;;;28.94;30.72;100672.84;5049920;28;20021;-37
2021/09/07 06:23:13;;;;;;;14.70;5.50;;;;;;;28.86;31.04;100674.34;5050159;28;20032;-36
2021/09/07 06:25:39;;;;;;;13.55;5.45;;;;;;;29.13;30.66;100670.00;5049734;28;20024;-38
2021/09/07 06:28:04;;;;;;;10.60;4.93;;;;;;;29.62;29.84;100668.41;5049738;28;20017;-36
2021/09/07 06:30:30;;;;;;;13.23;5.35;;;;;;;29.68;29.87;100674.56;5048935;28;20029;-38
2021/09/07 06:32:55;;;;;;;14.52;5.50;;;;;;;30.02;29.01;100677.66;5049525;28;20032;-36
2021/09/07 06:35:21;;;;;;;12.25;4.53;;;;;;;30.42;28.91;100676.13;5049464;28;20408;-37
2021/09/07 06:37:46;;;;;;;9.48;4.18;;;;;;;31.08;27.21;100681.78;5049394;28;20017;-37
2021/09/07 06:40:12;;;;;;;12.38;4.43;;;;;;;30.87;27.30;100682.31;5049474;28;20143;-38
2021/09/07 06:42:38;;;;;;;12.75;4.22;;;;;;;30.31;27.27;100684.63;5049549;28;20035;-37
2021/09/07 06:45:04;;;;;;;11.80;4.43;;;;;;;29.53;28.42;100679.31;5049540;28;20025;-37
2021/09/07 06:47:29;;;;;;;12.98;4.18;;;;;;;29.79;28.36;100685.03;5042738;28;20547;-38
2021/09/07 06:49:54;;;;;;;10.85;4.03;;;;;;;29.76;28.70;100682.91;5029309;28;20512;-38
2021/09/07 06:52:22;;;;;;;7.13;3.60;;;;;;;30.21;27.84;100682.09;5029217;28;20034;-37
2021/09/07 06:54:48;;;;;;;9.07;3.42;;;;;;;30.29;27.24;100683.28;5029004;28;20118;-37
2021/09/07 06:57:13;;;;;;;10.48;3.45;;;;;;;30.48;26.61;100688.59;5028817;28;20508;-37
2021/09/07 06:59:39;;;;;;;6.50;2.65;;;;;;;29.84;26.26;100686.06;5029095;28;20040;-37
2021/09/07 07:02:04;;;;;;;6.03;3.00;;;;;;;29.00;26.59;100686.13;5037961;28;20029;-37
2021/09/07 07:04:30;;;;;;;6.20;2.97;;;;;;;28.65;27.38;100690.34;5048498;28;20030;-38
2021/09/07 07:06:55;;;;;;;5.75;3.03;;;;;;;28.33;27.25;100683.78;5049626;28;20060;-37
2021/09/07 07:09:21;;;;;;;5.70;3.00;;;;;;;28.10;27.69;100684.72;5048923;28;20049;-37
2021/09/07 07:11:46;;;;;;;7.32;3.17;;;;;;;28.04;27.94;100684.78;5048833;28;20021;-37
2021/09/07 07:14:11;;;;;;;7.70;3.40;;;;;;;27.78;28.49;100684.38;5048249;28;20025;-38
2021/09/07 07:16:37;;;;;;;4.97;2.90;;;;;;;27.59;28.39;100680.81;5031134;28;20029;-37
2021/09/07 07:19:02;;;;;;;4.47;3.05;;;;;;;28.37;28.30;100670.31;5029090;28;20074;-38
2021/09/07 07:21:29;;;;;;;12.63;7.85;;;;;;;28.57;26.71;100680.91;5028375;28;20058;-38
2021/09/07 07:23:58;;;;;;;4.75;2.80;;;;;;;28.35;27.69;100681.56;5029119;28;20342;-36
2021/09/07 07:26:23;;;;;;;3.63;2.50;;;;;;;26.75;29.01;100679.34;5028932;28;20414;-37
2021/09/07 07:28:48;;;;;;;5.75;2.40;;;;;;;24.98;30.51;100685.34;5028420;28;20127;-36
2021/09/07 07:31:14;;;;;;;3.63;2.35;;;;;;;24.36;31.75;100684.59;5028605;28;20185;-37
2021/09/07 07:33:39;;;;;;;6.68;2.13;;;;;;;25.22;30.33;100683.91;5028407;28;20309;-37
2021/09/07 07:36:05;;;;;;;3.75;2.50;;;;;;;25.46;29.86;100687.63;5028684;28;20021;-37
2021/09/07 07:38:30;;;;;;;5.85;2.30;;;;;;;25.94;29.83;100687.91;5028930;28;20041;-37
2021/09/07 07:40:56;;;;;;;107.38;70.75;;;;;;;25.88;29.55;100686.31;5029039;28;20025;-38
2021/09/07 07:43:24;;;;;;;4.88;2.70;;;;;;;25.62;29.50;100690.28;5028777;28;20540;-38
2021/09/07 07:45:51;;;;;;;7.78;3.42;;;;;;;25.72;30.17;100693.78;5029397;28;20036;-38
2021/09/07 07:48:16;;;;;;;7.13;2.80;;;;;;;26.45;28.58;100688.63;5041709;28;20033;-37
2021/09/07 07:50:42;;;;;;;8.20;2.65;;;;;;;27.02;27.94;100697.09;5049140;28;20162;-49
2021/09/07 07:53:07;;;;;;;6.13;2.05;;;;;;;24.38;30.34;100712.34;5049290;28;20504;-48
2021/09/07 07:55:33;;;;;;;4.30;2.13;;;;;;;24.25;31.05;100704.72;5049117;28;20032;-48
2021/09/07 07:57:58;;;;;;;6.45;2.45;;;;;;;24.30;31.01;100693.84;5047613;28;20102;-50
2021/09/07 08:00:24;;;;;;;4.50;2.15;;;;;;;24.62;30.83;100692.78;5049122;28;20013;-37
2021/09/07 08:02:49;;;;;;;3.90;2.22;;;;;;;24.97;30.45;100699.22;5033751;28;20104;-38
2021/09/07 08:05:15;;;;;;;2.97;2.10;;;;;;;25.80;28.35;100703.25;5034601;28;20027;-37
2021/09/07 08:07:40;;;;;;;4.25;1.80;;;;;;;25.82;27.47;100700.25;5038454;28;20356;-38
2021/09/07 08:10:06;;;;;;;5.13;1.90;;;;;;;24.74;29.73;100704.19;5038004;28;20037;-51
2021/09/07 08:12:31;;;;;;;4.78;1.90;;;;;;;25.75;28.39;100692.38;5039952;28;20535;-51
2021/09/07 08:14:57;;;;;;;4.43;2.78;;;;;;;25.90;28.17;100697.72;5040383;28;20036;-49
2021/09/07 08:17:23;;;;;;;4.85;1.90;;;;;;;24.93;29.83;100701.69;5044059;28;20021;-47
2021/09/07 08:19:48;;;;;;;3.17;1.83;;;;;;;24.33;31.01;100697.94;5043082;28;20013;-49
2021/09/07 08:22:14;;;;;;;3.30;1.80;;;;;;;24.80;31.01;100691.38;5045489;28;20036;-49
2021/09/07 08:24:39;;;;;;;3.88;1.92;;;;;;;25.71;29.87;100689.41;5033345;28;20025;-47
2021/09/07 08:27:05;;;;;;;3.45;2.13;;;;;;;26.12;28.60;100688.34;5032913;28;20029;-49
2021/09/07 08:29:31;;;;;;;7.25;1.90;;;;;;;26.72;28.85;100691.66;5046575;28;20056;-47
2021/09/07 08:31:56;;;;;;;4.18;2.00;;;;;;;26.79;27.81;100690.47;5042873;28;20032;-48
2021/09/07 08:34:21;;;;;;;5.35;1.90;;;;;;;27.48;27.70;100689.16;5045702;28;20471;-51
2021/09/07 08:36:47;;;;;;;2.20;1.60;;;;;;;26.66;27.04;100690.06;5040785;28;20017;-49
2021/09/07 08:39:15;;;;;;;3.65;2.00;;;;;;;25.24;29.25;100687.19;5042227;28;20029;-48
2021/09/07 08:41:41;;;;;;;4.43;1.90;;;;;;;24.67;30.26;100686.50;5042472;28;20120;-50
2021/09/07 08:44:07;;;;;;;14.32;7.82;;;;;;;25.14;29.84;100686.09;5040203;28;20086;-52
2021/09/07 08:46:32;;;;;;;2.30;1.77;;;;;;;24.77;30.22;100683.78;5023946;28;20469;-49
2021/09/07 08:48:58;;;;;;;3.85;1.90;;;;;;;24.75;30.29;100675.06;5038482;28;20092;-52
2021/09/07 08:51:23;;;;;;;4.53;2.10;;;;;;;25.65;29.10;100682.38;5041026;28;20048;-48
2021/09/07 08:53:49;;;;;;;2.50;1.73;;;;;;;25.62;29.12;100682.91;5040294;28;20028;-49
2021/09/07 08:56:14;;;;;;;5.30;1.75;;;;;;;25.66;29.30;100677.72;5040979;28;20024;-51
2021/09/07 08:58:39;;;;;;;6.38;2.00;;;;;;;26.16;29.30;100672.22;5041822;28;20355;-49
2021/09/07 09:01:12;;;;;;;6.38;1.90;;;;;;;26.33;28.72;100667.16;5039476;28;20448;-48
2021/09/07 09:03:46;;;;;;;3.80;1.85;;;;;;;26.28;27.96;100672.69;5041256;28;20552;-49
2021/09/07 09:06:12;;;;;;;3.55;1.92;;;;;;;25.71;28.82;100673.06;5040672;28;20442;-51
2021/09/07 09:08:38;;;;;;;5.20;1.92;;;;;;;25.91;29.08;100672.16;5040771;28;20017;-50
2021/09/07 09:11:05;;;;;;;3.50;1.95;;;;;;;25.44;29.73;100672.69;5040391;28;20044;-48
2021/09/07 09:13:41;;;;;;;3.30;2.05;;;;;;;25.12;30.25;100658.34;5039934;28;20116;-50
2021/09/07 09:16:06;;;;;;;5.10;2.08;;;;;;;25.06;30.65;100677.72;5039842;28;20108;-49
2021/09/07 09:18:36;;;;;;;2.25;1.70;;;;;;;25.28;30.08;100655.56;5041310;28;20559;-48
2021/09/07 09:21:41;;;;;;;2.97;2.00;;;;;;;26.22;29.17;100654.72;5041163;28;20033;-52
2021/09/07 09:24:17;;;;;;;4.55;1.90;;;;;;;25.48;29.88;100650.03;4980808;28;20050;-48
2021/09/07 09:27:09;;;;;;;5.38;1.92;;;;;;;25.18;29.91;100640.88;4997812;28;20030;-51
2021/09/07 09:29:36;;;;;;;3.30;1.90;;;;;;;25.43;29.81;100650.06;5024572;28;20030;-48
2021/09/07 09:32:04;;;;;;;3.92;1.92;;;;;;;25.09;30.09;100650.75;5040654;28;20435;-48
2021/09/07 09:34:30;;;;;;;3.25;1.98;;;;;;;25.11;31.19;100648.56;5023052;28;20021;-48
2021/09/07 09:37:06;;;;;;;5.85;2.35;;;;;;;25.83;30.07;100653.63;5039083;28;20157;-51
2021/09/07 09:39:47;;;;;;;3.90;2.05;;;;;;;26.73;28.46;100651.50;5029434;28;20048;-49
2021/09/07 09:42:18;;;;;;;3.95;2.00;;;;;;;27.11;28.19;100629.75;5030460;28;20036;-48
2021/09/07 09:44:43;;;;;;;4.85;2.30;;;;;;;27.63;27.79;100632.66;5030589;28;20129;-49
2021/09/07 09:47:09;;;;;;;3.40;1.90;;;;;;;27.79;27.47;100630.47;5030678;28;20022;-48
2021/09/07 09:49:35;;;;;;;205.38;141.63;;;;;;;28.06;26.88;100621.59;5030595;28;20041;-49
2021/09/07 09:52:02;;;;;;;6.32;2.85;;;;;;;27.67;26.96;100620.81;5030319;28;20032;-51
2021/09/07 09:54:29;;;;;;;4.30;2.17;;;;;;;27.43;27.30;100626.34;5030557;28;20028;-49
2021/09/07 09:56:55;;;;;;;2.85;1.92;;;;;;;26.23;29.34;100629.06;5030740;28;20025;-51
2021/09/07 09:59:21;;;;;;;3.95;2.10;;;;;;;25.98;29.92;100627.38;5025462;28;20021;-49
2021/09/07 10:01:46;;;;;;;4.13;2.40;;;;;;;26.57;28.71;100629.00;5029992;28;20411;-51
2021/09/07 10:04:14;;;;;;;3.63;2.20;;;;;;;27.16;28.38;100624.25;5030396;28;20033;-48
2021/09/07 10:06:39;;;;;;;3.72;1.90;;;;;;;28.40;26.27;100623.97;5030246;28;20443;-48
2021/09/07 10:09:05;;;;;;;3.17;2.05;;;;;;;29.21;25.61;100628.22;5030312;28;20568;-51
2021/09/07 10:11:30;;;;;;;6.07;2.00;;;;;;;29.34;24.87;100623.78;5030517;28;20033;-49
2021/09/07 10:13:58;;;;;;;4.20;1.90;;;;;;;29.41;24.79;100629.66;5012647;28;20022;-48
2021/09/07 10:16:35;;;;;;;3.25;2.00;;;;;;;28.79;25.65;100625.47;5029935;28;20025;-48
2021/09/07 10:19:10;;;;;;;5.95;2.33;;;;;;;29.19;25.46;100620.28;5030511;28;20476;-50
2021/09/07 10:26:39;;;;;;;8.48;4.22;;;;;;;29.89;24.35;100607.19;5030076;28;20331;-49
2021/09/07 10:29:08;;;;;;;3.08;2.13;;;;;;;30.00;24.85;100610.47;5030480;28;20037;-51
2021/09/07 10:31:43;;;;;;;;;;;;;;;30.06;23.91;100606.47;5030253;28;20025;-51
2021/09/07 10:34:09;;;;;;;3.50;2.08;;;;;;;30.21;23.38;100602.53;5030232;28;19916;-48
2021/09/07 10:36:36;;;;;;;4.68;1.95;;;;;;;30.38;23.55;100599.06;5029569;28;20022;-51
2021/09/07 10:39:03;;;;;;;5.85;1.90;;;;;;;28.86;24.76;100592.19;5028789;28;20496;-48
2021/09/07 10:41:29;;;;;;;3.10;1.80;;;;;;;27.49;26.38;100603.31;5029912;28;20037;-50
2021/09/07 10:44:07;;;;;;;60.95;37.45;;;;;;;28.57;25.38;100587.84;5029587;28;20038;-51
2021/09/07 10:47:00;;;;;;;4.65;2.30;;;;;;;29.17;24.82;100583.38;5029284;28;20021;-48
2021/09/07 10:49:37;;;;;;;4.75;2.00;;;;;;;29.52;24.81;100578.16;5029314;28;20040;-49
2021/09/07 10:52:09;;;;;;;3.58;2.00;;;;;;;28.22;25.77;100583.84;5029831;28;20025;-50
2021/09/07 10:54:52;;;;;;;2.80;1.67;;;;;;;28.10;25.53;100578.03;5029622;28;20104;-50
2021/09/07 10:57:36;;;;;;;3.58;2.20;;;;;;;27.18;27.01;100567.38;5029248;28;20044;-50
2021/09/07 11:00:13;;;;;;;3.95;2.00;;;;;;;27.75;27.11;100564.63;5029384;28;20029;-49
2021/09/07 11:03:02;;;;;;;6.25;2.20;;;;;;;27.48;26.59;100563.44;5029022;28;20025;-38
2021/09/07 11:05:28;;;;;;;6.32;1.92;;;;;;;27.81;26.09;100565.38;5031213;28;20018;-38
2021/09/07 11:08:13;;;;;;;4.68;1.65;;;;;;;26.79;27.44;100573.94;5031079;28;20029;-37
2021/09/07 11:10:53;;;;;;;3.45;1.80;;;;;;;26.62;27.67;100568.94;5075147;28;20385;-37
2021/09/07 11:13:29;;;;;;;3.72;1.83;;;;;;;26.70;27.47;100567.47;5072662;28;20517;-37
2021/09/07 11:15:57;;;;;;;2.92;1.60;;;;;;;26.22;28.64;100564.72;5081404;28;20129;-37
2021/09/07 11:18:24;;;;;;;5.00;1.92;;;;;;;26.38;28.41;100565.38;5071377;28;20407;-37
2021/09/07 11:20:50;;;;;;;5.20;2.15;;;;;;;27.09;27.17;100556.31;5076392;28;20399;-38
2021/09/07 11:23:27;;;;;;;3.28;1.70;;;;;;;26.94;27.55;100551.06;5079014;28;20032;-37
2021/09/07 11:26:00;;;;;;;4.00;2.00;;;;;;;27.23;26.78;100552.84;5084644;28;20333;-37
2021/09/07 11:28:25;;;;;;;2.80;1.85;;;;;;;26.81;27.67;100552.59;5071647;28;20073;-37